Time;durP1;ratioP1;P1;durP2;ratioP2;P2;SDS_P1;SDS_P2;PMS_P1;PMS_P2;Temp;Humidity;BMP_temperature;BMP_pressure;BME280_temperature;BME280_humidity;BME280_pressure;Samples;Min_cycle;Max_cycle;Signal;HPM_P1;HPM_P2
2022/07/10 00:00:31;;;;;;;21.55;4.10;;;11.50;99.90;;;;;;5051412;28;20379;-82
2022/07/10 00:02:59;;;;;;;20.00;4.10;;;11.60;99.90;;;;;;5042102;28;20426;-78
2022/07/10 00:05:26;;;;;;;24.73;4.50;;;11.60;99.90;;;;;;5041108;28;20831;-81
2022/07/10 00:07:53;;;;;;;18.88;3.97;;;11.70;99.90;;;;;;5048533;28;20392;-80
2022/07/10 00:10:22;;;;;;;19.67;4.30;;;11.70;99.90;;;;;;5048867;28;20416;-78
2022/07/10 00:12:51;;;;;;;20.77;4.05;;;11.80;99.90;;;;;;5051789;28;20388;-81
2022/07/10 00:15:19;;;;;;;18.15;3.90;;;11.90;99.90;;;;;;5043003;28;20377;-77
2022/07/10 00:17:47;;;;;;;22.25;4.40;;;12.10;99.90;;;;;;5057361;28;20870;-78
2022/07/10 00:20:15;;;;;;;23.25;4.43;;;12.00;99.90;;;;;;5072362;28;20382;-82
2022/07/10 00:22:43;;;;;;;22.08;4.28;;;12.10;99.90;;;;;;5049785;28;20395;-80
2022/07/10 00:25:12;;;;;;;22.75;4.28;;;12.30;99.90;;;;;;5049626;28;20435;-81
2022/07/10 00:27:41;;;;;;;20.52;4.40;;;12.30;99.90;;;;;;5051878;28;20379;-77
2022/07/10 00:30:10;;;;;;;23.27;4.50;;;12.50;99.90;;;;;;5044915;28;20998;-78
2022/07/10 00:32:38;;;;;;;22.17;4.60;;;12.60;99.90;;;;;;5052378;28;20473;-80
2022/07/10 00:35:06;;;;;;;20.30;4.43;;;12.60;99.90;;;;;;5051574;28;20406;-79
2022/07/10 00:37:33;;;;;;;22.05;4.93;;;12.70;99.90;;;;;;5049347;28;20387;-78
2022/07/10 00:40:01;;;;;;;23.30;4.40;;;12.80;99.90;;;;;;5048870;28;20390;-81
2022/07/10 00:42:28;;;;;;;19.13;4.60;;;12.80;99.90;;;;;;5047999;28;20458;-77
2022/07/10 00:44:55;;;;;;;22.58;4.70;;;12.80;99.90;;;;;;5054404;28;20381;-76
2022/07/10 00:47:22;;;;;;;19.38;4.45;;;12.80;99.90;;;;;;5059235;28;20862;-78
2022/07/10 00:49:50;;;;;;;21.58;4.57;;;13.00;99.90;;;;;;5052481;28;20395;-80
2022/07/10 00:52:19;;;;;;;18.95;4.43;;;13.20;99.90;;;;;;5053522;28;20751;-81
2022/07/10 00:54:50;;;;;;;18.30;4.20;;;13.10;99.90;;;;;;5048321;28;20391;-77
2022/07/10 00:57:18;;;;;;;20.13;4.50;;;13.10;99.90;;;;;;5047790;28;20377;-78
2022/07/10 00:59:47;;;;;;;20.15;4.60;;;13.00;99.90;;;;;;5044189;28;20391;-76
2022/07/10 01:02:15;;;;;;;20.07;4.53;;;12.90;99.90;;;;;;5052490;28;20376;-77
2022/07/10 01:04:43;;;;;;;22.38;5.05;;;12.80;99.90;;;;;;5050538;28;20498;-77
2022/07/10 01:07:10;;;;;;;22.55;5.00;;;12.70;99.90;;;;;;5041949;28;20399;-78
2022/07/10 01:09:38;;;;;;;22.25;4.63;;;12.70;99.90;;;;;;5049603;28;21260;-77
2022/07/10 01:12:10;;;;;;;20.80;4.47;;;12.70;99.90;;;;;;5051088;28;20817;-79
2022/07/10 01:14:39;;;;;;;23.60;4.40;;;12.60;99.90;;;;;;5041816;28;20398;-77
2022/07/10 01:17:10;;;;;;;23.02;5.50;;;12.50;99.90;;;;;;5060735;28;20366;-79
2022/07/10 01:19:37;;;;;;;22.67;5.10;;;12.50;99.90;;;;;;5047143;28;20464;-79
2022/07/10 01:22:05;;;;;;;20.77;4.60;;;12.50;99.90;;;;;;5061368;28;20377;-78
2022/07/10 01:24:32;;;;;;;22.93;4.83;;;12.70;99.90;;;;;;5043879;28;20404;-79
2022/07/10 01:26:59;;;;;;;18.50;4.40;;;12.90;99.90;;;;;;5063875;28;20443;-76
2022/07/10 01:29:27;;;;;;;20.00;4.57;;;13.20;99.90;;;;;;5061809;28;20804;-81
2022/07/10 01:31:54;;;;;;;19.63;4.65;;;13.60;99.90;;;;;;5050966;28;20473;-80
2022/07/10 01:34:21;;;;;;;18.58;4.15;;;14.10;99.90;;;;;;5062465;28;20414;-77
2022/07/10 01:36:49;;;;;;;17.85;4.10;;;14.30;99.90;;;;;;5052648;28;20439;-80
2022/07/10 01:39:16;;;;;;;17.50;4.03;;;14.10;99.90;;;;;;5053351;28;20391;-76
2022/07/10 01:41:44;;;;;;;17.35;3.83;;;13.60;99.90;;;;;;5058874;28;20731;-81
2022/07/10 01:44:11;;;;;;;20.33;4.20;;;13.30;99.90;;;;;;5055857;28;20408;-79
2022/07/10 01:46:50;;;;;;;17.58;3.90;;;13.20;99.90;;;;;;5057147;28;20768;-87
2022/07/10 01:49:17;;;;;;;22.55;4.68;;;13.00;99.90;;;;;;5050980;28;20826;-82
2022/07/10 01:51:45;;;;;;;23.33;4.50;;;12.90;99.90;;;;;;5061631;28;20400;-76
2022/07/10 01:54:12;;;;;;;21.10;4.70;;;13.00;99.90;;;;;;5071242;28;20378;-79
2022/07/10 01:56:39;;;;;;;18.35;4.45;;;13.20;99.90;;;;;;5053923;28;20469;-80
2022/07/10 01:59:06;;;;;;;20.05;4.80;;;13.30;99.90;;;;;;5056291;28;20383;-78
2022/07/10 02:01:33;;;;;;;20.88;4.30;;;13.50;99.90;;;;;;5043462;28;20463;-82
2022/07/10 02:06:46;;;;;;;24.77;4.55;;;14.00;99.90;;;;;;5049658;28;20423;-78
2022/07/10 02:09:14;;;;;;;19.25;4.32;;;14.20;99.90;;;;;;5047921;28;20399;-76
2022/07/10 02:11:41;;;;;;;18.48;4.18;;;14.30;99.90;;;;;;5054990;28;20376;-89
2022/07/10 02:14:09;;;;;;;20.95;4.10;;;14.30;99.90;;;;;;5068170;28;20743;-76
2022/07/10 02:16:36;;;;;;;17.30;4.18;;;14.30;99.90;;;;;;5070579;28;20977;-76
2022/07/10 02:19:03;;;;;;;17.00;3.72;;;14.50;99.90;;;;;;5070955;28;20388;-80
2022/07/10 02:21:30;;;;;;;13.52;3.65;;;14.70;99.90;;;;;;5056395;28;20754;-80
2022/07/10 02:23:58;;;;;;;15.00;3.70;;;14.80;99.90;;;;;;5054835;28;20527;-76
2022/07/10 02:26:25;;;;;;;16.08;3.50;;;15.00;99.90;;;;;;5071508;28;20374;-82
2022/07/10 02:28:52;;;;;;;15.25;3.55;;;15.10;99.90;;;;;;5065829;28;20492;-81
2022/07/10 02:31:19;;;;;;;16.83;3.63;;;15.10;99.90;;;;;;5056164;28;20388;-77
2022/07/10 02:33:46;;;;;;;16.38;3.90;;;15.10;99.90;;;;;;5071614;28;20412;-81
2022/07/10 02:36:13;;;;;;;18.38;4.00;;;15.20;99.90;;;;;;5069895;28;20409;-81
2022/07/10 02:38:41;;;;;;;16.17;3.45;;;15.40;99.90;;;;;;5065629;28;20390;-77
2022/07/10 02:41:08;;;;;;;14.38;3.20;;;15.40;99.90;;;;;;5066811;28;20406;-81
2022/07/10 02:43:35;;;;;;;10.88;3.00;;;15.30;99.90;;;;;;5056309;28;20397;-79
2022/07/10 02:46:02;;;;;;;14.68;3.33;;;15.10;99.90;;;;;;5051968;28;21102;-80
2022/07/10 02:48:30;;;;;;;13.55;3.45;;;14.80;99.90;;;;;;5041268;28;20384;-80
2022/07/10 02:50:57;;;;;;;16.30;3.53;;;14.40;99.90;;;;;;5051666;28;20376;-82
2022/07/10 02:53:24;;;;;;;16.08;3.85;;;14.20;99.90;;;;;;5069269;28;20389;-80
2022/07/10 02:55:52;;;;;;;16.25;3.85;;;13.90;99.90;;;;;;5064389;28;20387;-84
2022/07/10 02:58:20;;;;;;;16.42;3.65;;;13.70;99.90;;;;;;5061696;28;20774;-84
2022/07/10 03:00:47;;;;;;;17.92;3.40;;;13.50;99.90;;;;;;5044458;28;20400;-83
2022/07/10 03:03:15;;;;;;;16.35;3.30;;;13.40;99.90;;;;;;5061810;28;20390;-79
2022/07/10 03:05:42;;;;;;;16.65;3.60;;;13.30;99.90;;;;;;5059819;28;20887;-82
2022/07/10 03:08:09;;;;;;;17.75;3.53;;;13.40;99.90;;;;;;5039871;28;20383;-84
2022/07/10 03:10:36;;;;;;;18.02;3.92;;;13.60;99.90;;;;;;5053268;28;20449;-82
2022/07/10 03:13:03;;;;;;;16.58;3.50;;;13.80;99.90;;;;;;5047272;28;20431;-82
2022/07/10 03:15:31;;;;;;;15.70;3.28;;;14.10;99.90;;;;;;5065713;28;20472;-84
2022/07/10 03:17:58;;;;;;;17.65;3.60;;;14.20;99.90;;;;;;5070216;28;20378;-84
2022/07/10 03:20:25;;;;;;;16.38;3.25;;;14.30;99.90;;;;;;5064094;28;20956;-84
2022/07/10 03:22:52;;;;;;;13.68;3.13;;;14.30;99.90;;;;;;5047592;28;20905;-83
2022/07/10 03:25:19;;;;;;;13.70;3.17;;;14.30;99.90;;;;;;5052087;28;20927;-82
2022/07/10 03:27:47;;;;;;;13.77;3.00;;;14.30;99.90;;;;;;5063071;28;20382;-82
2022/07/10 03:30:14;;;;;;;16.50;3.00;;;14.50;99.90;;;;;;5057130;28;20453;-80
2022/07/10 03:32:41;;;;;;;16.73;3.15;;;14.50;99.90;;;;;;5063668;28;20388;-79
2022/07/10 03:35:08;;;;;;;14.93;2.85;;;14.30;99.90;;;;;;5057835;28;20386;-79
2022/07/10 03:37:35;;;;;;;13.83;3.07;;;14.20;99.90;;;;;;5071957;28;20388;-80
2022/07/10 03:40:03;;;;;;;15.90;3.20;;;14.10;99.90;;;;;;5071995;28;20373;-77
2022/07/10 03:42:30;;;;;;;13.82;3.03;;;14.30;99.90;;;;;;5071721;28;20375;-80
2022/07/10 03:44:57;;;;;;;14.23;3.25;;;14.50;99.90;;;;;;5073205;28;20952;-81
2022/07/10 03:47:24;;;;;;;12.77;3.40;;;14.60;99.90;;;;;;5075429;28;20472;-79
2022/07/10 03:49:51;;;;;;;15.20;3.20;;;14.80;99.90;;;;;;5075554;28;20460;-79
2022/07/10 03:52:18;;;;;;;14.93;3.40;;;15.00;99.90;;;;;;5075361;28;20387;-80
2022/07/10 03:54:46;;;;;;;15.65;3.40;;;15.00;99.90;;;;;;5075168;28;20765;-79
2022/07/10 03:59:58;;;;;;;16.55;3.83;;;14.60;99.90;;;;;;5075435;28;20366;-79
2022/07/10 04:02:25;;;;;;;16.58;3.55;;;14.30;99.90;;;;;;5075068;28;20381;-79
2022/07/10 04:04:52;;;;;;;15.80;3.50;;;14.30;99.90;;;;;;5074974;28;20366;-77
2022/07/10 04:07:20;;;;;;;17.67;3.57;;;14.30;99.90;;;;;;5075054;28;20378;-78
2022/07/10 04:09:47;;;;;;;13.85;3.28;;;14.40;99.90;;;;;;5074938;28;20369;-78
2022/07/10 04:12:14;;;;;;;15.90;3.33;;;14.40;99.90;;;;;;5074961;28;20382;-81
2022/07/10 04:14:41;;;;;;;15.80;3.10;;;14.60;99.90;;;;;;5074909;28;20423;-76
2022/07/10 04:17:08;;;;;;;13.27;3.05;;;14.70;99.90;;;;;;5074961;28;20460;-79
2022/07/10 04:19:36;;;;;;;9.55;2.63;;;15.00;99.90;;;;;;5074974;28;20874;-79
2022/07/10 04:22:03;;;;;;;9.55;2.75;;;15.30;99.90;;;;;;5075145;28;20388;-79
2022/07/10 04:24:30;;;;;;;12.45;3.03;;;15.40;99.90;;;;;;5075217;28;20406;-75
2022/07/10 04:26:57;;;;;;;10.60;2.50;;;15.20;99.90;;;;;;5077077;28;20377;-77
2022/07/10 04:29:24;;;;;;;8.93;2.20;;;15.20;99.90;;;;;;5077790;28;20937;-78
2022/07/10 04:31:51;;;;;;;7.75;2.20;;;15.30;99.90;;;;;;5075161;28;20405;-77
2022/07/10 04:34:18;;;;;;;7.38;2.17;;;15.20;99.90;;;;;;5074995;28;20390;-79
2022/07/10 04:36:45;;;;;;;10.63;2.30;;;14.90;99.90;;;;;;5073861;28;20424;-78
2022/07/10 04:39:13;;;;;;;9.52;2.20;;;14.90;99.90;;;;;;5074746;28;20392;-79
2022/07/10 04:41:40;;;;;;;8.57;2.20;;;15.10;99.90;;;;;;5074983;28;20370;-78
2022/07/10 04:44:07;;;;;;;9.70;1.80;;;15.40;99.90;;;;;;5074356;28;20401;-76
2022/07/10 04:46:34;;;;;;;6.20;1.85;;;15.70;99.90;;;;;;5074638;28;20370;-75
2022/07/10 04:49:01;;;;;;;9.20;1.90;;;16.20;99.90;;;;;;5074641;28;20386;-77
2022/07/10 04:51:28;;;;;;;8.70;1.98;;;16.50;99.90;;;;;;5074254;28;20375;-79
2022/07/10 04:53:56;;;;;;;7.10;1.83;;;16.50;99.90;;;;;;5074208;28;20870;-78
2022/07/10 04:56:23;;;;;;;8.13;1.98;;;16.50;99.90;;;;;;5074060;28;20386;-79
2022/07/10 04:58:50;;;;;;;6.88;1.80;;;16.80;99.90;;;;;;5073884;28;20370;-77
2022/07/10 05:01:17;;;;;;;8.75;1.90;;;17.10;99.90;;;;;;5073849;28;20374;-75
2022/07/10 05:03:44;;;;;;;8.43;2.00;;;16.90;99.90;;;;;;5073837;28;20481;-76
2022/07/10 05:06:11;;;;;;;7.55;2.00;;;16.80;99.90;;;;;;5073793;28;20436;-77
2022/07/10 05:08:38;;;;;;;7.18;2.08;;;16.20;99.90;;;;;;5073715;28;20416;-78
2022/07/10 05:11:06;;;;;;;6.78;1.60;;;15.50;99.90;;;;;;5073578;28;20762;-77
2022/07/10 05:13:33;;;;;;;7.13;1.70;;;15.10;99.90;;;;;;5073698;28;20382;-83
2022/07/10 05:16:00;;;;;;;7.10;1.83;;;15.00;99.90;;;;;;5073722;28;20362;-76
2022/07/10 05:18:27;;;;;;;6.55;1.70;;;15.20;99.90;;;;;;5073599;28;20378;-74
2022/07/10 05:20:54;;;;;;;7.40;1.97;;;15.40;99.90;;;;;;5072360;28;20373;-76
2022/07/10 05:23:22;;;;;;;7.65;1.63;;;15.40;99.90;;;;;;5073408;28;20390;-76
2022/07/10 05:25:49;;;;;;;7.03;1.60;;;15.30;99.90;;;;;;5073558;28;20459;-76
2022/07/10 05:28:16;;;;;;;7.47;1.80;;;15.30;99.90;;;;;;5074111;28;20411;-80
2022/07/10 05:30:43;;;;;;;10.18;2.47;;;15.00;99.90;;;;;;5075202;28;20374;-77
2022/07/10 05:33:10;;;;;;;9.63;2.50;;;14.70;99.90;;;;;;5073463;28;20746;-73
2022/07/10 05:35:37;;;;;;;9.27;2.70;;;14.40;99.90;;;;;;5073952;28;20374;-74
2022/07/10 05:38:06;;;;;;;9.32;2.33;;;14.00;99.90;;;;;;5073156;28;20397;-74
2022/07/10 05:40:35;;;;;;;9.07;2.53;;;13.80;99.90;;;;;;5071420;28;20371;-79
2022/07/10 05:43:04;;;;;;;12.97;3.00;;;13.50;99.90;;;;;;5073140;28;20618;-77
2022/07/10 05:45:31;;;;;;;14.38;2.83;;;13.40;99.90;;;;;;5073111;28;20366;-75
2022/07/10 05:47:58;;;;;;;8.70;2.17;;;13.30;99.90;;;;;;5073300;28;20480;-77
2022/07/10 05:50:25;;;;;;;10.10;2.30;;;13.20;99.90;;;;;;5073031;28;20370;-79
2022/07/10 05:52:52;;;;;;;8.43;2.80;;;13.00;99.90;;;;;;5072942;28;20370;-76
2022/07/10 05:55:20;;;;;;;8.38;3.50;;;12.90;99.90;;;;;;5071744;28;20386;-77
2022/07/10 05:57:47;;;;;;;9.43;2.70;;;12.80;99.90;;;;;;5073588;28;20374;-77
2022/07/10 06:00:14;;;;;;;9.98;2.20;;;12.80;99.90;;;;;;5072631;28;20370;-78
2022/07/10 06:02:42;;;;;;;8.27;2.42;;;12.70;99.90;;;;;;5072905;28;20462;-76
2022/07/10 06:05:09;;;;;;;10.77;2.77;;;12.80;99.90;;;;;;5072715;28;20432;-78
2022/07/10 06:07:37;;;;;;;10.70;2.85;;;12.80;99.90;;;;;;5072905;28;20485;-75
2022/07/10 06:10:05;;;;;;;12.65;4.10;;;12.70;99.90;;;;;;5072729;28;20929;-76
2022/07/10 06:12:33;;;;;;;10.40;3.50;;;12.70;99.90;;;;;;5072637;28;20367;-75
2022/07/10 06:15:00;;;;;;;13.43;3.70;;;12.70;99.90;;;;;;5072409;28;20421;-76
2022/07/10 06:17:27;;;;;;;15.95;5.88;;;12.60;99.90;;;;;;5072672;28;20370;-78
2022/07/10 06:19:54;;;;;;;13.55;5.40;;;12.60;99.90;;;;;;5072589;28;20382;-77
2022/07/10 06:22:30;;;;;;;13.95;6.50;;;12.50;99.90;;;;;;5072977;28;20370;-79
2022/07/10 06:25:03;;;;;;;13.02;5.70;;;12.40;99.90;;;;;;5072214;28;20394;-76
2022/07/10 06:27:30;;;;;;;10.70;4.10;;;12.40;99.90;;;;;;5072415;28;20369;-76
2022/07/10 06:29:58;;;;;;;9.82;2.50;;;12.30;99.90;;;;;;5072443;28;20382;-77
2022/07/10 06:32:26;;;;;;;9.77;2.97;;;12.30;99.90;;;;;;5072526;28;20370;-75
2022/07/10 06:34:54;;;;;;;9.15;3.00;;;12.20;99.90;;;;;;5072767;28;20703;-76
2022/07/10 06:37:21;;;;;;;9.40;2.70;;;12.10;99.90;;;;;;5072232;28;20741;-77
2022/07/10 06:39:49;;;;;;;10.15;3.20;;;12.10;99.90;;;;;;5072497;28;20386;-77
2022/07/10 06:42:16;;;;;;;11.98;6.47;;;12.00;99.90;;;;;;5071801;28;20853;-76
2022/07/10 06:44:44;;;;;;;13.15;7.65;;;12.00;99.90;;;;;;5071996;28;20394;-77
2022/07/10 06:50:00;;;;;;;9.00;5.47;;;12.00;99.90;;;;;;5072691;28;20494;-75
2022/07/10 06:52:27;;;;;;;11.88;3.47;;;12.10;99.90;;;;;;5072224;28;20370;-75
2022/07/10 06:54:55;;;;;;;9.00;3.20;;;12.10;99.90;;;;;;5072063;28;20373;-75
2022/07/10 06:57:22;;;;;;;7.82;2.50;;;12.10;99.90;;;;;;5072328;28;20424;-77
2022/07/10 06:59:49;;;;;;;9.25;2.53;;;12.10;99.90;;;;;;5072384;28;20866;-76
2022/07/10 07:02:16;;;;;;;10.80;2.42;;;12.10;99.90;;;;;;5072057;28;20385;-77
2022/07/10 07:04:45;;;;;;;8.48;2.53;;;12.00;99.90;;;;;;5072342;28;20481;-78
2022/07/10 07:07:13;;;;;;;9.52;2.50;;;12.00;99.90;;;;;;5071946;28;20370;-77
2022/07/10 07:09:42;;;;;;;13.18;4.20;;;11.90;99.90;;;;;;5072118;28;20720;-77
2022/07/10 07:12:09;;;;;;;11.35;3.53;;;11.90;99.90;;;;;;5072072;28;20380;-76
2022/07/10 07:14:37;;;;;;;11.27;4.10;;;11.80;99.90;;;;;;5070226;28;20382;-77
2022/07/10 07:17:13;;;;;;;10.32;2.67;;;11.70;99.90;;;;;;5071916;28;20470;-76
2022/07/10 07:25:14;;;;;;;12.73;3.33;;;11.40;99.90;;;;;;5076339;28;20369;-78
2022/07/10 07:27:43;;;;;;;12.63;5.23;;;11.40;99.90;;;;;;5076513;28;20392;-77
2022/07/10 07:30:16;;;;;;;12.88;5.47;;;11.40;99.90;;;;;;5075503;28;20376;-77
2022/07/10 07:32:45;;;;;;;14.03;6.73;;;11.30;99.90;;;;;;5075587;28;20447;-77
2022/07/10 07:35:14;;;;;;;14.60;5.78;;;11.20;99.90;;;;;;5076518;28;20366;-76
2022/07/10 07:37:46;;;;;;;13.35;3.75;;;11.10;99.90;;;;;;5077149;28;20889;-77
2022/07/10 07:40:23;;;;;;;14.80;3.85;;;11.10;99.90;;;;;;5077285;28;20377;-80
2022/07/10 07:42:54;;;;;;;17.20;7.77;;;11.10;99.90;;;;;;5077244;28;20385;-82
2022/07/10 07:45:22;;;;;;;16.70;6.93;;;11.10;99.90;;;;;;5077076;28;20366;-77
2022/07/10 07:47:51;;;;;;;19.80;8.75;;;11.00;99.90;;;;;;5076704;28;20370;-81
2022/07/10 07:50:21;;;;;;;18.52;6.85;;;10.90;99.90;;;;;;5076135;28;20376;-79
2022/07/10 07:52:49;;;;;;;12.75;3.67;;;10.90;99.90;;;;;;5076119;28;20451;-76
2022/07/10 07:55:18;;;;;;;13.93;3.38;;;11.00;99.90;;;;;;5075674;28;20378;-76
2022/07/10 07:57:46;;;;;;;10.80;3.03;;;11.00;99.90;;;;;;5074312;28;20381;-82
2022/07/10 08:00:17;;;;;;;9.23;2.58;;;11.00;99.90;;;;;;5076162;28;20370;-74
2022/07/10 08:02:44;;;;;;;11.32;2.60;;;11.10;99.90;;;;;;5075439;28;20374;-76
2022/07/10 08:05:12;;;;;;;9.60;2.35;;;11.10;99.90;;;;;;5075269;28;20389;-79
2022/07/10 08:07:44;;;;;;;9.27;2.50;;;11.10;99.90;;;;;;5075459;28;20431;-77
2022/07/10 08:10:14;;;;;;;10.45;2.60;;;11.10;99.90;;;;;;5075815;28;20381;-77
2022/07/10 08:12:43;;;;;;;9.75;2.50;;;11.10;99.90;;;;;;5075976;28;20374;-82
2022/07/10 08:15:16;;;;;;;10.45;2.10;;;11.10;99.90;;;;;;5075686;28;20382;-79
2022/07/10 08:17:43;;;;;;;8.52;2.17;;;11.10;99.90;;;;;;5076343;28;20402;-77
2022/07/10 08:20:13;;;;;;;8.03;1.90;;;11.20;99.90;;;;;;5074953;28;20436;-75
2022/07/10 08:22:42;;;;;;;6.28;2.00;;;11.10;99.90;;;;;;5074723;28;20371;-76
2022/07/10 08:25:10;;;;;;;7.75;1.80;;;11.20;99.90;;;;;;5074352;28;20374;-75
2022/07/10 08:27:38;;;;;;;10.18;1.95;;;11.20;99.90;;;;;;5074907;28;20371;-75
2022/07/10 08:30:08;;;;;;;6.75;1.80;;;11.10;99.90;;;;;;5074880;28;20877;-79
2022/07/10 08:32:36;;;;;;;9.68;1.83;;;11.10;99.90;;;;;;5073179;28;20373;-77
2022/07/10 08:35:05;;;;;;;8.15;1.85;;;11.10;99.90;;;;;;5074933;28;20378;-76
2022/07/10 08:37:42;;;;;;;10.63;2.60;;;11.10;99.90;;;;;;5074743;28;20439;-78
2022/07/10 08:40:15;;;;;;;7.22;1.80;;;11.00;99.90;;;;;;5074457;28;20381;-77
2022/07/10 08:42:44;;;;;;;8.65;1.85;;;11.00;99.90;;;;;;5074789;28;20381;-75
2022/07/10 08:45:12;;;;;;;6.32;1.77;;;11.10;99.90;;;;;;5074415;28;20389;-75
2022/07/10 08:47:41;;;;;;;8.02;1.80;;;11.00;99.90;;;;;;5073195;28;20741;-77
2022/07/10 08:50:26;;;;;;;7.35;1.70;;;11.00;99.90;;;;;;5074288;28;20378;-75
2022/07/10 08:53:19;;;;;;;8.40;1.80;;;10.90;99.90;;;;;;5074410;28;20699;-77
2022/07/10 08:55:46;;;;;;;7.10;1.70;;;10.80;99.90;;;;;;5072166;28;20416;-79
2022/07/10 08:58:14;;;;;;;7.65;1.60;;;10.80;99.90;;;;;;5072361;28;20425;-76
2022/07/10 09:00:41;;;;;;;6.05;1.63;;;10.80;99.90;;;;;;5055678;28;20378;-75
2022/07/10 09:03:09;;;;;;;7.30;1.60;;;10.80;99.90;;;;;;5072459;28;20910;-76
2022/07/10 09:05:36;;;;;;;10.00;1.75;;;10.70;99.90;;;;;;5072039;28;20430;-77
2022/07/10 09:08:03;;;;;;;5.35;1.80;;;10.70;99.90;;;;;;5055275;28;20767;-73
2022/07/10 09:10:31;;;;;;;7.07;1.95;;;10.70;99.90;;;;;;5071610;28;20366;-78
2022/07/10 09:13:03;;;;;;;6.63;1.83;;;10.70;99.90;;;;;;5071473;28;20370;-75
2022/07/10 09:15:32;;;;;;;9.65;2.15;;;10.30;99.90;;;;;;5071621;28;20541;-76
2022/07/10 09:18:06;;;;;;;8.77;2.63;;;10.70;99.90;;;;;;5071343;28;20376;-76
2022/07/10 09:20:36;;;;;;;6.93;1.70;;;10.80;99.90;;;;;;5038867;28;20390;-79
2022/07/10 09:23:20;;;;;;;6.20;1.60;;;10.80;99.90;;;;;;5071545;28;20390;-75
2022/07/10 09:25:50;;;;;;;6.22;1.70;;;10.80;99.90;;;;;;5071709;28;20420;-75
2022/07/10 09:28:21;;;;;;;6.00;1.67;;;10.80;99.90;;;;;;5073737;28;20370;-75
2022/07/10 09:30:49;;;;;;;5.07;1.48;;;10.80;99.90;;;;;;5073391;28;20386;-79
2022/07/10 09:33:31;;;;;;;5.00;1.33;;;10.80;99.90;;;;;;5073310;28;20394;-75
2022/07/10 09:36:05;;;;;;;3.13;1.30;;;10.80;99.90;;;;;;5073356;28;20382;-77
2022/07/10 09:38:44;;;;;;;4.50;1.20;;;10.80;99.90;;;;;;5074049;28;20377;-79
2022/07/10 09:41:17;;;;;;;4.30;1.20;;;10.70;99.90;;;;;;5073769;28;20881;-75
2022/07/10 09:43:51;;;;;;;5.13;1.30;;;10.70;99.90;;;;;;5072626;28;20404;-74
2022/07/10 09:46:21;;;;;;;3.83;1.37;;;10.70;99.90;;;;;;5073779;28;20370;-75
2022/07/10 09:49:00;;;;;;;3.97;1.40;;;10.70;99.90;;;;;;5072690;28;20382;-75
2022/07/10 09:51:30;;;;;;;4.70;1.63;;;10.70;99.90;;;;;;5072952;28;20864;-78
2022/07/10 09:53:59;;;;;;;4.25;1.45;;;10.80;99.90;;;;;;5072952;28;20412;-78
2022/07/10 09:56:28;;;;;;;4.97;1.58;;;10.80;99.90;;;;;;5073365;28;20870;-77
2022/07/10 09:59:00;;;;;;;5.82;1.88;;;10.80;99.90;;;;;;5072974;28;20469;-76
2022/07/10 10:01:30;;;;;;;5.75;1.73;;;10.80;99.90;;;;;;5072854;28;20450;-75
2022/07/10 10:04:00;;;;;;;5.22;1.65;;;10.80;99.90;;;;;;5072931;28;20800;-76
2022/07/10 10:06:30;;;;;;;5.05;1.40;;;10.80;99.90;;;;;;5072848;28;20365;-77
2022/07/10 10:08:57;;;;;;;3.50;1.23;;;10.80;99.90;;;;;;5071487;28;20386;-78
2022/07/10 10:11:28;;;;;;;4.03;1.20;;;10.80;99.90;;;;;;5072626;28;20744;-74
2022/07/10 10:13:55;;;;;;;5.20;1.30;;;10.80;99.90;;;;;;5072667;28;20400;-75
2022/07/10 10:16:23;;;;;;;4.53;1.60;;;10.80;99.90;;;;;;5072575;28;20420;-78
2022/07/10 10:21:37;;;;;;;3.43;1.20;;;10.80;99.90;;;;;;5073362;28;20799;-78
2022/07/10 10:24:06;;;;;;;8.10;1.67;;;10.80;99.90;;;;;;5072353;28;20434;-77
2022/07/10 10:26:33;;;;;;;4.93;1.40;;;10.70;99.90;;;;;;5072396;28;20370;-73
2022/07/10 10:29:03;;;;;;;5.03;1.48;;;10.70;99.90;;;;;;5072497;28;20420;-77
2022/07/10 10:31:32;;;;;;;4.67;1.50;;;10.70;99.90;;;;;;5072017;28;20901;-76
2022/07/10 10:34:00;;;;;;;6.00;1.52;;;10.60;99.90;;;;;;5072083;28;20405;-75
2022/07/10 10:36:44;;;;;;;3.80;1.30;;;10.60;99.90;;;;;;5072386;28;20373;-79
2022/07/10 10:39:12;;;;;;;3.97;1.10;;;10.60;99.90;;;;;;5070714;28;20374;-76
2022/07/10 10:41:48;;;;;;;3.63;1.10;;;10.60;99.90;;;;;;5072138;28;20371;-77
2022/07/10 10:44:18;;;;;;;5.38;1.17;;;10.60;99.90;;;;;;5072108;28;20874;-78
2022/07/10 10:46:54;;;;;;;3.85;1.20;;;10.60;99.90;;;;;;5073087;28;20374;-76
2022/07/10 10:49:24;;;;;;;5.72;1.50;;;10.60;99.90;;;;;;5072016;28;20379;-75
2022/07/10 10:51:57;;;;;;;6.03;2.15;;;10.60;99.90;;;;;;5071897;28;20405;-76
2022/07/10 10:54:24;;;;;;;9.88;3.75;;;10.60;99.90;;;;;;5071612;28;20758;-76
2022/07/10 10:57:32;;;;;;;7.80;3.03;;;10.60;99.90;;;;;;5072892;28;20460;-77
2022/07/10 11:00:00;;;;;;;5.70;2.65;;;10.70;99.90;;;;;;5050586;28;20383;-78
2022/07/10 11:02:36;;;;;;;9.43;3.90;;;10.70;99.90;;;;;;5049423;28;20458;-79
2022/07/10 11:05:18;;;;;;;14.40;5.80;;;10.70;99.90;;;;;;5049573;28;20443;-80
2022/07/10 11:07:59;;;;;;;7.78;3.45;;;10.70;99.90;;;;;;5049677;28;20403;-77
2022/07/10 11:10:59;;;;;;;7.20;2.55;;;10.70;99.90;;;;;;5049714;28;20403;-78
2022/07/10 11:13:30;;;;;;;6.43;2.47;;;10.70;99.90;;;;;;5010243;28;20435;-75
2022/07/10 11:15:58;;;;;;;8.32;2.05;;;10.60;99.90;;;;;;5010402;28;20382;-75
2022/07/10 11:18:28;;;;;;;6.50;1.80;;;10.60;99.90;;;;;;5009869;28;20383;-75
2022/07/10 11:20:55;;;;;;;5.03;1.60;;;10.50;99.90;;;;;;5009935;28;20382;-75
2022/07/10 11:23:49;;;;;;;6.00;1.70;;;10.50;99.90;;;;;;5010334;28;20446;-76
2022/07/10 11:26:40;;;;;;;4.93;1.40;;;10.50;99.90;;;;;;5009977;28;20863;-76
2022/07/10 11:29:08;;;;;;;4.97;1.40;;;10.40;99.90;;;;;;5009984;28;20895;-77
2022/07/10 11:31:44;;;;;;;4.65;1.40;;;10.50;99.90;;;;;;5010001;28;20391;-75
2022/07/10 11:34:11;;;;;;;6.07;1.70;;;10.50;99.90;;;;;;5009733;28;20407;-75
2022/07/10 11:36:40;;;;;;;5.82;1.65;;;10.50;99.90;;;;;;5030377;28;20797;-79
2022/07/10 11:39:08;;;;;;;7.28;3.45;;;10.50;99.90;;;;;;5012989;28;20757;-77
2022/07/10 11:41:44;;;;;;;6.85;2.17;;;10.50;99.90;;;;;;5029765;28;20389;-74
2022/07/10 11:44:16;;;;;;;4.88;1.77;;;10.40;99.90;;;;;;5029470;28;20409;-78
2022/07/10 11:46:46;;;;;;;7.55;2.30;;;10.40;99.90;;;;;;5029436;28;20381;-73
2022/07/10 11:49:14;;;;;;;8.13;3.50;;;10.40;99.90;;;;;;5054785;28;20776;-76
2022/07/10 11:51:43;;;;;;;5.47;2.60;;;10.40;99.90;;;;;;5071419;28;20725;-77
2022/07/10 11:54:15;;;;;;;6.22;2.45;;;10.30;99.90;;;;;;5072389;28;20834;-74
2022/07/10 11:56:48;;;;;;;6.65;2.15;;;10.30;99.90;;;;;;5071609;28;20371;-79
2022/07/10 11:59:17;;;;;;;6.30;2.22;;;10.40;99.90;;;;;;5071614;28;20470;-77
2022/07/10 12:01:48;;;;;;;5.97;2.00;;;10.30;99.90;;;;;;5053118;28;20381;-77
2022/07/10 12:04:18;;;;;;;5.10;1.95;;;10.30;99.90;;;;;;5070085;28;20434;-80
2022/07/10 12:06:47;;;;;;;8.02;3.42;;;10.20;99.90;;;;;;5074349;28;20873;-78
2022/07/10 12:09:16;;;;;;;9.27;4.35;;;10.30;99.90;;;;;;5074944;28;20429;-79
2022/07/10 12:11:57;;;;;;;9.38;3.85;;;10.30;99.90;;;;;;5075620;28;20427;-79
2022/07/10 12:14:25;;;;;;;6.32;2.30;;;10.20;99.90;;;;;;5074930;28;20374;-75
2022/07/10 12:16:54;;;;;;;6.22;2.40;;;10.20;99.90;;;;;;5074958;28;20385;-75
2022/07/10 12:19:25;;;;;;;7.40;2.05;;;10.20;99.90;;;;;;5074879;28;20427;-74
2022/07/10 12:21:53;;;;;;;5.50;1.70;;;10.20;99.90;;;;;;5075400;28;20358;-78
2022/07/10 12:24:21;;;;;;;6.57;2.60;;;10.20;99.90;;;;;;5074742;28;20402;-77
2022/07/10 12:26:48;;;;;;;5.40;1.90;;;10.20;99.90;;;;;;5074774;28;20399;-79
2022/07/10 12:29:23;;;;;;;5.68;1.60;;;10.30;99.90;;;;;;5074676;28;20946;-79
2022/07/10 12:31:53;;;;;;;4.50;1.40;;;10.30;99.90;;;;;;5074508;28;20448;-75
2022/07/10 12:34:33;;;;;;;6.72;1.60;;;10.30;99.90;;;;;;5074518;28;20394;-77
2022/07/10 12:37:16;;;;;;;6.30;1.40;;;10.30;99.90;;;;;;5073862;28;20465;-74
2022/07/10 12:39:53;;;;;;;4.80;1.40;;;10.20;99.90;;;;;;5075346;28;20392;-76
2022/07/10 12:42:30;;;;;;;5.80;1.52;;;10.20;99.90;;;;;;5074495;28;20756;-76
2022/07/10 12:45:14;;;;;;;6.15;1.60;;;10.10;99.90;;;;;;5074294;28;20460;-77
2022/07/10 12:47:46;;;;;;;5.43;1.63;;;10.00;99.90;;;;;;5074274;28;20401;-80
2022/07/10 12:50:17;;;;;;;5.63;1.80;;;9.90;99.90;;;;;;5074330;28;20370;-76
2022/07/10 12:52:44;;;;;;;8.73;1.80;;;9.80;99.90;;;;;;5074617;28;20366;-76
2022/07/10 12:55:21;;;;;;;5.47;1.80;;;9.80;99.90;;;;;;5074107;28;20381;-74
2022/07/10 12:57:55;;;;;;;6.38;1.80;;;9.80;99.90;;;;;;5074077;28;20857;-74
2022/07/10 13:00:26;;;;;;;7.28;1.80;;;9.90;99.90;;;;;;5072890;28;20378;-74
2022/07/10 13:03:19;;;;;;;4.18;1.70;;;9.80;99.90;;;;;;5074036;28;20366;-78
2022/07/10 13:05:47;;;;;;;5.97;1.63;;;9.90;99.90;;;;;;5073922;28;20385;-79
2022/07/10 13:08:21;;;;;;;5.38;1.58;;;9.90;99.90;;;;;;5073888;28;20398;-75
2022/07/10 13:10:58;;;;;;;5.25;1.60;;;9.80;99.90;;;;;;5074432;28;20385;-77